createdAt,value
2022-08-30T00:02:18.985Z,52.90
2022-08-30T00:04:45.826Z,53.50
2022-08-30T00:07:12.633Z,52.10
2022-08-30T00:09:41.418Z,52.20
2022-08-30T00:12:08.943Z,52.20
2022-08-30T00:14:35.754Z,52.20
2022-08-30T00:17:02.555Z,52.10
2022-08-30T00:19:29.403Z,52.10
2022-08-30T00:21:56.447Z,52.20
2022-08-30T00:24:23.426Z,52.20
2022-08-30T00:26:50.292Z,52.10
2022-08-30T00:29:17.321Z,52.10
2022-08-30T00:31:44.311Z,52.00
2022-08-30T00:34:11.156Z,52.20
2022-08-30T00:36:37.891Z,52.10
2022-08-30T00:39:05.402Z,52.30
2022-08-30T00:41:32.498Z,52.30
2022-08-30T00:44:00.931Z,52.40
2022-08-30T00:46:29.082Z,52.40
2022-08-30T00:48:57.255Z,52.40
2022-08-30T00:53:56.536Z,52.30
2022-08-30T00:56:25.381Z,52.40
2022-08-30T00:58:57.064Z,52.50
2022-08-30T01:01:25.365Z,52.40
2022-08-30T01:03:53.392Z,52.50
2022-08-30T01:06:20.930Z,52.70
2022-08-30T01:08:48.165Z,53.40
2022-08-30T01:11:20.074Z,52.80
2022-08-30T01:13:48.582Z,52.90
2022-08-30T01:16:15.901Z,53.40
2022-08-30T01:18:50.840Z,53.00
2022-08-30T01:21:33.849Z,52.90
2022-08-30T01:24:01.972Z,52.90
2022-08-30T01:26:30.445Z,52.90
2022-08-30T01:31:27.038Z,52.90
2022-08-30T01:33:54.159Z,52.90
2022-08-30T01:36:21.659Z,52.90
2022-08-30T01:38:53.112Z,53.00
2022-08-30T01:41:24.342Z,52.90
2022-08-30T01:43:53.074Z,53.10
2022-08-30T01:46:23.486Z,53.00
2022-08-30T01:48:54.060Z,52.90
2022-08-30T01:51:23.361Z,52.90
2022-08-30T01:53:50.610Z,53.00
2022-08-30T01:56:18.267Z,53.00
2022-08-30T01:58:45.619Z,53.10
2022-08-30T02:01:15.614Z,53.10
2022-08-30T02:03:44.550Z,53.20
2022-08-30T02:06:14.512Z,53.30
2022-08-30T02:08:43.465Z,53.30
2022-08-30T02:11:17.199Z,53.50
2022-08-30T02:13:45.667Z,53.50
2022-08-30T02:16:16.582Z,53.40
2022-08-30T02:18:43.979Z,53.40
2022-08-30T02:21:11.846Z,53.50
2022-08-30T02:23:38.679Z,53.50
2022-08-30T02:26:05.713Z,53.60
2022-08-30T02:28:32.671Z,53.60
2022-08-30T02:31:00.383Z,53.50
2022-08-30T02:33:27.682Z,53.50
2022-08-30T02:35:54.548Z,53.60
2022-08-30T02:38:23.630Z,53.60
2022-08-30T02:40:51.147Z,53.70
2022-08-30T02:43:19.219Z,53.80
2022-08-30T02:45:46.463Z,53.70
2022-08-30T02:48:13.901Z,53.70
2022-08-30T02:50:45.675Z,53.80
2022-08-30T02:53:16.232Z,53.80
2022-08-30T02:55:43.526Z,53.90
2022-08-30T02:58:10.766Z,53.90
2022-08-30T03:00:38.026Z,53.90
2022-08-30T03:03:05.191Z,54.10
2022-08-30T03:05:33.368Z,54.00
2022-08-30T03:08:01.261Z,54.10
2022-08-30T03:10:29.364Z,54.10
2022-08-30T03:12:56.417Z,54.10
2022-08-30T03:15:25.789Z,54.10
2022-08-30T03:17:53.894Z,54.20
2022-08-30T03:20:22.143Z,54.10
2022-08-30T03:22:49.298Z,54.20
2022-08-30T03:25:16.426Z,54.20
2022-08-30T03:27:43.261Z,54.30
2022-08-30T03:30:10.648Z,54.40
2022-08-30T03:32:37.454Z,54.30
2022-08-30T03:35:04.890Z,54.30
2022-08-30T03:37:35.150Z,54.30
2022-08-30T03:40:03.509Z,54.30
2022-08-30T03:42:30.640Z,54.30
2022-08-30T03:44:57.426Z,54.40
2022-08-30T03:47:24.245Z,54.40
2022-08-30T03:49:51.978Z,54.40
2022-08-30T03:52:19.054Z,54.40
2022-08-30T03:54:45.866Z,54.50
2022-08-30T03:57:19.749Z,54.40
2022-08-30T03:59:47.320Z,55.30
2022-08-30T04:02:15.267Z,54.70
2022-08-30T04:04:42.147Z,54.70
2022-08-30T04:07:09.218Z,54.70
2022-08-30T04:09:36.040Z,54.70
2022-08-30T04:12:03.298Z,54.70
2022-08-30T04:14:30.043Z,54.70
2022-08-30T04:16:57.992Z,54.70
2022-08-30T04:19:25.038Z,54.70
2022-08-30T04:21:51.958Z,54.70
2022-08-30T04:24:19.242Z,54.70
2022-08-30T04:26:45.990Z,54.80
2022-08-30T04:29:16.418Z,54.80
2022-08-30T04:31:43.756Z,54.90
2022-08-30T04:34:12.191Z,54.80
2022-08-30T04:36:39.142Z,54.80
2022-08-30T04:39:07.026Z,54.80
2022-08-30T04:41:35.846Z,54.70
2022-08-30T04:44:03.500Z,54.80
2022-08-30T04:46:30.587Z,54.70
2022-08-30T04:51:24.528Z,54.70
2022-08-30T04:53:51.455Z,54.60
2022-08-30T04:56:22.773Z,54.70
2022-08-30T04:58:52.416Z,54.70
2022-08-30T05:01:25.678Z,54.60
2022-08-30T05:03:54.576Z,55.30
2022-08-30T05:06:22.275Z,54.50
2022-08-30T05:08:50.168Z,54.40
2022-08-30T05:11:18.239Z,54.40
2022-08-30T05:13:45.625Z,54.40
2022-08-30T05:16:17.740Z,54.40
2022-08-30T05:18:46.937Z,54.60
2022-08-30T05:21:17.640Z,54.60
2022-08-30T05:23:45.285Z,54.70
2022-08-30T05:26:15.145Z,54.60
2022-08-30T05:28:42.569Z,54.60
2022-08-30T05:31:33.423Z,54.70
2022-08-30T05:34:01.282Z,54.60
2022-08-30T05:36:30.945Z,54.80
2022-08-30T05:41:27.233Z,54.80
2022-08-30T05:43:59.424Z,54.70
2022-08-30T05:46:29.693Z,54.70
2022-08-30T05:48:57.814Z,54.60
2022-08-30T05:51:28.658Z,54.60
2022-08-30T05:53:57.687Z,54.70
2022-08-30T05:56:28.366Z,54.70
2022-08-30T05:58:55.479Z,54.60
2022-08-30T06:01:29.295Z,54.60
2022-08-30T06:04:02.944Z,54.50
2022-08-30T06:06:33.551Z,54.60
2022-08-30T06:09:00.717Z,54.60
2022-08-30T06:11:28.014Z,54.50
2022-08-30T06:13:56.064Z,54.50
2022-08-30T06:16:27.525Z,54.50
2022-08-30T06:18:56.943Z,54.60
2022-08-30T06:21:27.907Z,54.50
2022-08-30T06:23:56.379Z,54.60
2022-08-30T06:26:23.495Z,54.50
2022-08-30T06:28:50.910Z,54.60
2022-08-30T06:31:19.674Z,54.60
2022-08-30T06:33:47.328Z,54.70
2022-08-30T06:36:20.619Z,54.60
2022-08-30T06:38:52.199Z,54.70
2022-08-30T06:41:22.255Z,54.70
2022-08-30T06:43:50.069Z,54.70
2022-08-30T06:46:25.548Z,54.70
2022-08-30T06:48:53.242Z,54.80
2022-08-30T06:51:26.332Z,54.80
2022-08-30T06:53:53.944Z,54.80
2022-08-30T06:56:22.382Z,54.80
2022-08-30T06:58:50.040Z,54.80
2022-08-30T07:01:21.928Z,55.10
2022-08-30T07:03:49.039Z,55.10
2022-08-30T07:06:16.533Z,55.20
2022-08-30T07:08:45.995Z,56.80
2022-08-30T07:11:12.927Z,55.10
2022-08-30T07:13:39.850Z,55.40
2022-08-30T07:16:12.276Z,55.60
2022-08-30T07:18:51.067Z,55.60
2022-08-30T07:21:20.887Z,55.60
2022-08-30T07:23:53.558Z,55.60
2022-08-30T07:26:48.859Z,55.70
2022-08-30T07:29:16.883Z,55.70
2022-08-30T07:31:44.363Z,55.70
2022-08-30T07:34:13.285Z,55.80
2022-08-30T07:36:40.216Z,55.90
2022-08-30T07:39:08.158Z,56.00
2022-08-30T07:41:38.523Z,56.00
2022-08-30T07:44:06.834Z,56.10
2022-08-30T07:46:34.118Z,56.10
2022-08-30T07:49:01.781Z,56.20
2022-08-30T07:51:31.057Z,56.20
2022-08-30T07:53:58.255Z,56.10
2022-08-30T07:56:25.558Z,56.20
2022-08-30T07:58:53.070Z,56.10
2022-08-30T08:01:21.223Z,56.40
2022-08-30T08:03:50.177Z,56.30
2022-08-30T08:06:19.011Z,56.10
2022-08-30T08:08:45.955Z,56.00
2022-08-30T08:11:22.484Z,55.90
2022-08-30T08:13:53.387Z,56.00
2022-08-30T08:16:24.000Z,55.80
2022-08-30T08:18:52.139Z,55.70
2022-08-30T08:21:19.217Z,55.70
2022-08-30T08:23:46.072Z,55.60
2022-08-30T08:28:41.706Z,55.50
2022-08-30T08:31:18.479Z,55.50
2022-08-30T08:33:45.475Z,55.50
2022-08-30T08:36:13.699Z,55.30
2022-08-30T08:38:40.761Z,55.40
2022-08-30T08:41:26.219Z,55.30
2022-08-30T08:43:53.069Z,55.80
2022-08-30T08:46:19.880Z,55.20
2022-08-30T08:49:00.439Z,55.10
2022-08-30T08:51:50.684Z,55.30
2022-08-30T08:54:42.326Z,55.20
2022-08-30T08:57:13.874Z,55.10
2022-08-30T08:59:44.866Z,55.10
2022-08-30T09:02:28.459Z,55.00
2022-08-30T09:04:59.217Z,55.10
2022-08-30T09:07:32.622Z,55.10
2022-08-30T09:10:00.581Z,55.10
2022-08-30T09:12:28.938Z,55.00
2022-08-30T09:15:06.776Z,55.00
2022-08-30T09:17:53.855Z,55.00
2022-08-30T09:20:34.318Z,54.90
2022-08-30T09:23:21.636Z,54.90
2022-08-30T09:25:57.788Z,55.60
2022-08-30T09:28:32.218Z,55.30
2022-08-30T09:31:11.335Z,54.70
2022-08-30T09:33:39.404Z,54.70
2022-08-30T09:36:32.285Z,54.70
2022-08-30T09:39:02.246Z,54.70
2022-08-30T09:41:42.819Z,54.50
2022-08-30T09:44:14.357Z,54.60
2022-08-30T09:46:45.542Z,54.50
2022-08-30T09:49:35.656Z,54.50
2022-08-30T09:52:24.424Z,54.50
2022-08-30T09:55:16.710Z,54.50
2022-08-30T09:58:00.291Z,54.40
2022-08-30T10:00:31.448Z,54.30
2022-08-30T10:03:07.282Z,54.30
2022-08-30T10:05:52.055Z,54.30
2022-08-30T10:08:31.642Z,54.90
2022-08-30T10:11:23.120Z,54.40
2022-08-30T10:14:11.043Z,54.50
2022-08-30T10:17:04.350Z,54.30
2022-08-30T10:19:44.781Z,54.40
2022-08-30T10:22:16.920Z,54.30
2022-08-30T10:24:50.215Z,54.20
2022-08-30T10:27:36.018Z,54.30
2022-08-30T10:30:10.816Z,54.20
2022-08-30T10:32:53.417Z,54.90
2022-08-30T10:35:23.927Z,54.10
2022-08-30T10:38:04.664Z,54.10
2022-08-30T10:40:55.828Z,54.00
2022-08-30T10:43:43.690Z,54.80
2022-08-30T10:46:36.122Z,54.50
2022-08-30T10:49:05.909Z,54.00
2022-08-30T10:51:59.074Z,53.90
2022-08-30T10:54:54.594Z,54.20
2022-08-30T10:57:21.567Z,54.80
2022-08-30T11:00:16.743Z,54.20
2022-08-30T11:02:58.446Z,54.80
2022-08-30T11:05:53.630Z,54.70
2022-08-30T11:08:38.977Z,54.60
2022-08-30T11:11:35.082Z,54.70
2022-08-30T11:14:05.815Z,54.70
2022-08-30T11:16:46.048Z,54.90
2022-08-30T11:19:26.269Z,54.10
2022-08-30T11:22:08.271Z,54.80
2022-08-30T11:25:09.828Z,54.80
2022-08-30T11:27:56.778Z,54.60
2022-08-30T11:30:27.523Z,54.60
2022-08-30T11:33:00.263Z,54.90
2022-08-30T11:35:48.354Z,54.40
2022-08-30T11:38:18.559Z,53.90
2022-08-30T11:40:49.151Z,54.80
2022-08-30T11:43:34.591Z,54.50
2022-08-30T11:46:19.620Z,55.00
2022-08-30T11:49:15.514Z,54.40
2022-08-30T11:52:26.251Z,53.70
2022-08-30T11:55:12.442Z,54.30
2022-08-30T11:58:11.746Z,54.40
2022-08-30T12:00:51.439Z,54.40
2022-08-30T12:03:22.605Z,54.60
2022-08-30T12:06:01.966Z,54.70
2022-08-30T12:08:33.387Z,54.50
2022-08-30T12:11:04.072Z,54.30
2022-08-30T12:13:37.040Z,54.50
2022-08-30T12:16:06.219Z,54.60
2022-08-30T12:18:39.319Z,54.50
2022-08-30T12:21:13.913Z,56.00
2022-08-30T12:23:57.241Z,54.50
2022-08-30T12:26:25.046Z,54.20
2022-08-30T12:29:08.201Z,54.40
2022-08-30T12:31:46.474Z,53.60
2022-08-30T12:34:30.487Z,54.20
2022-08-30T12:37:04.484Z,53.50
2022-08-30T12:39:41.007Z,53.50
2022-08-30T12:42:30.026Z,53.50
2022-08-30T12:45:00.726Z,54.20
2022-08-30T12:47:34.353Z,54.10
2022-08-30T12:50:01.747Z,54.30
2022-08-30T12:52:43.162Z,53.50
2022-08-30T12:55:25.747Z,53.40
2022-08-30T12:58:04.211Z,54.00
2022-08-30T13:00:34.858Z,53.90
2022-08-30T13:03:16.258Z,53.40
2022-08-30T13:05:48.446Z,53.30
2022-08-30T13:08:27.567Z,54.00
2022-08-30T13:10:59.339Z,53.30
2022-08-30T13:13:31.502Z,53.30
2022-08-30T13:16:12.591Z,54.00
2022-08-30T13:18:40.307Z,54.00
2022-08-30T13:21:20.918Z,54.30
2022-08-30T13:23:54.800Z,53.90
2022-08-30T13:26:23.095Z,54.00
2022-08-30T13:28:54.417Z,53.30
2022-08-30T13:31:22.460Z,53.20
2022-08-30T13:33:52.928Z,53.30
2022-08-30T13:36:23.159Z,55.00
2022-08-30T13:38:52.116Z,53.40
2022-08-30T13:41:21.077Z,53.30
2022-08-30T13:46:36.394Z,53.40
2022-08-30T13:49:42.998Z,53.30
2022-08-30T13:52:18.951Z,53.40
2022-08-30T13:54:41.716Z,53.40
2022-08-30T13:57:08.744Z,53.40
2022-08-30T13:59:35.676Z,53.40
2022-08-30T14:02:10.571Z,53.40
2022-08-30T14:04:38.721Z,53.20
2022-08-30T14:07:16.851Z,53.30
2022-08-30T14:09:47.554Z,54.00
2022-08-30T14:12:14.624Z,53.30
2022-08-30T14:14:43.141Z,53.30
2022-08-30T14:17:10.968Z,53.30
2022-08-30T14:19:39.613Z,53.30
2022-08-30T14:22:06.434Z,54.30
2022-08-30T14:24:33.297Z,53.30
2022-08-30T14:27:01.456Z,53.30
2022-08-30T14:29:29.811Z,55.00
2022-08-30T14:31:58.553Z,55.80
2022-08-30T14:34:26.773Z,53.20
2022-08-30T14:36:53.831Z,56.20
2022-08-30T14:39:21.892Z,53.20
2022-08-30T14:41:55.377Z,53.90
2022-08-30T14:44:23.262Z,53.20
2022-08-30T14:46:51.403Z,53.90
2022-08-30T14:49:20.909Z,54.00
2022-08-30T14:51:48.706Z,53.20
2022-08-30T14:54:19.165Z,53.80
2022-08-30T14:56:46.903Z,55.90
2022-08-30T14:59:14.274Z,54.00
2022-08-30T15:01:42.123Z,53.90
2022-08-30T15:04:10.239Z,53.80
2022-08-30T15:06:39.087Z,53.70
2022-08-30T15:09:08.807Z,53.60
2022-08-30T15:11:35.923Z,53.10
2022-08-30T15:14:02.759Z,53.00
2022-08-30T15:16:34.762Z,53.00
2022-08-30T15:19:03.575Z,53.70
2022-08-30T15:21:33.160Z,54.00
2022-08-30T15:24:01.227Z,53.60
2022-08-30T15:26:28.295Z,53.70
2022-08-30T15:28:55.590Z,54.10
2022-08-30T15:31:29.467Z,53.60
2022-08-30T15:33:57.215Z,53.00
2022-08-30T15:36:25.103Z,55.30
2022-08-30T15:38:55.757Z,53.50
2022-08-30T15:41:23.443Z,52.90
2022-08-30T15:43:52.671Z,52.80
2022-08-30T15:46:30.756Z,52.90
2022-08-30T15:49:18.659Z,52.80
2022-08-30T15:51:47.938Z,53.50
2022-08-30T15:54:23.579Z,52.80
2022-08-30T15:56:58.799Z,53.40
2022-08-30T15:59:29.832Z,52.80
2022-08-30T16:01:57.254Z,53.40
2022-08-30T16:04:24.601Z,52.70
2022-08-30T16:06:52.758Z,53.90
2022-08-30T16:09:19.838Z,53.50
2022-08-30T16:11:46.663Z,52.70
2022-08-30T16:14:13.552Z,52.80
2022-08-30T16:16:41.806Z,52.80
2022-08-30T16:19:09.352Z,53.50
2022-08-30T16:21:37.337Z,52.70
2022-08-30T16:24:07.986Z,52.60
2022-08-30T16:26:37.837Z,52.70
2022-08-30T16:29:07.298Z,52.60
2022-08-30T16:31:36.609Z,53.30
2022-08-30T16:34:04.341Z,52.50
2022-08-30T16:36:32.682Z,52.50
2022-08-30T16:38:59.568Z,53.60
2022-08-30T16:41:26.884Z,52.50
2022-08-30T16:43:54.859Z,52.50
2022-08-30T16:46:27.430Z,53.10
2022-08-30T16:48:58.098Z,52.50
2022-08-30T16:51:26.838Z,52.40
2022-08-30T16:53:58.754Z,53.20
2022-08-30T16:56:27.819Z,52.50
2022-08-30T16:59:01.411Z,52.40
2022-08-30T17:01:31.850Z,52.40
2022-08-30T17:03:59.242Z,53.10
2022-08-30T17:06:26.247Z,53.10
2022-08-30T17:08:56.043Z,53.20
2022-08-30T17:11:24.124Z,53.30
2022-08-30T17:13:51.611Z,52.40
2022-08-30T17:16:27.592Z,53.20
2022-08-30T17:18:59.600Z,53.00
2022-08-30T17:21:30.951Z,53.10
2022-08-30T17:24:02.490Z,52.90
2022-08-30T17:26:34.757Z,53.00
2022-08-30T17:29:02.574Z,52.20
2022-08-30T17:31:30.822Z,52.20
2022-08-30T17:34:03.324Z,52.30
2022-08-30T17:36:32.677Z,52.90
2022-08-30T17:39:10.499Z,52.20
2022-08-30T17:44:29.047Z,52.20
2022-08-30T17:46:57.614Z,53.00
2022-08-30T17:49:26.598Z,52.90
2022-08-30T17:51:56.647Z,53.10
2022-08-30T17:54:25.979Z,52.40
2022-08-30T17:56:53.990Z,52.30
2022-08-30T17:59:24.793Z,52.40
2022-08-30T18:01:53.716Z,52.40
2022-08-30T18:04:21.536Z,52.40
2022-08-30T18:06:51.621Z,52.40
2022-08-30T18:09:18.755Z,53.70
2022-08-30T18:11:45.965Z,52.40
2022-08-30T18:14:15.528Z,52.50
2022-08-30T18:16:49.728Z,52.40
2022-08-30T18:19:21.415Z,52.40
2022-08-30T18:21:48.274Z,52.70
2022-08-30T18:24:16.331Z,52.40
2022-08-30T18:26:43.324Z,52.40
2022-08-30T18:29:10.647Z,52.40
2022-08-30T18:31:37.600Z,52.30
2022-08-30T18:34:04.530Z,53.20
2022-08-30T18:38:58.982Z,52.10
2022-08-30T18:41:26.375Z,52.00
2022-08-30T18:44:06.051Z,52.00
2022-08-30T18:46:51.214Z,52.00
2022-08-30T18:49:23.662Z,51.90
2022-08-30T18:51:50.455Z,51.80
2022-08-30T18:54:17.707Z,51.80
2022-08-30T18:56:46.086Z,51.70
2022-08-30T18:59:13.149Z,51.70
2022-08-30T19:01:41.171Z,51.60
2022-08-30T19:04:08.095Z,51.60
2022-08-30T19:06:34.938Z,51.60
2022-08-30T19:09:09.157Z,51.50
2022-08-30T19:11:52.413Z,51.60
2022-08-30T19:14:19.139Z,51.60
2022-08-30T19:16:45.873Z,51.60
2022-08-30T19:19:12.870Z,51.60
2022-08-30T19:21:40.231Z,51.60
2022-08-30T19:24:07.744Z,51.60
2022-08-30T19:26:35.979Z,51.70
2022-08-30T19:29:04.866Z,51.60
2022-08-30T19:31:32.073Z,51.70
2022-08-30T19:33:59.396Z,51.70
2022-08-30T19:36:28.780Z,51.80
2022-08-30T19:38:55.932Z,51.90
2022-08-30T19:41:23.123Z,51.80
2022-08-30T19:43:51.263Z,51.90
2022-08-30T19:46:18.195Z,52.80
2022-08-30T19:48:45.081Z,52.00
2022-08-30T19:51:14.161Z,52.00
2022-08-30T19:53:42.363Z,52.10
2022-08-30T19:56:09.351Z,52.80
2022-08-30T19:58:36.295Z,52.20
2022-08-30T20:01:12.281Z,52.10
2022-08-30T20:03:51.916Z,52.20
2022-08-30T20:06:19.599Z,52.20
2022-08-30T20:11:17.126Z,52.10
2022-08-30T20:13:45.040Z,52.90
2022-08-30T20:16:13.006Z,52.20
2022-08-30T20:18:42.694Z,52.30
2022-08-30T20:21:13.514Z,52.90
2022-08-30T20:23:41.979Z,53.20
2022-08-30T20:24:25.089Z,53.50
2022-08-30T20:26:10.752Z,53.00
2022-08-30T20:28:37.803Z,52.40
2022-08-30T20:31:06.604Z,53.20
2022-08-30T20:33:36.387Z,52.40
2022-08-30T20:36:07.883Z,52.40
2022-08-30T20:38:34.680Z,52.50
2022-08-30T20:41:07.990Z,52.40
2022-08-30T20:43:34.966Z,53.20
2022-08-30T20:46:11.592Z,52.50
2022-08-30T20:48:40.060Z,52.50
2022-08-30T20:56:12.614Z,52.50
2022-08-30T20:58:39.523Z,52.60
2022-08-30T21:01:09.155Z,52.60
2022-08-30T21:03:37.099Z,53.30
2022-08-30T21:06:04.150Z,52.80
2022-08-30T21:08:31.163Z,53.50
2022-08-30T21:10:58.005Z,52.50
2022-08-30T21:13:25.203Z,53.50
2022-08-30T21:15:54.712Z,53.50
2022-08-30T21:18:22.091Z,52.70
2022-08-30T21:20:49.201Z,53.60
2022-08-30T21:23:17.075Z,52.70
2022-08-30T21:25:44.083Z,54.80
2022-08-30T21:28:11.187Z,52.80
2022-08-30T21:30:38.042Z,52.90
2022-08-30T21:33:06.726Z,53.00
2022-08-30T21:35:52.042Z,53.60
2022-08-30T21:38:19.886Z,53.00
2022-08-30T21:40:48.249Z,52.90
2022-08-30T21:43:15.920Z,52.90
2022-08-30T21:45:44.439Z,52.90
2022-08-30T21:48:12.898Z,52.90
2022-08-30T21:50:41.539Z,53.00
2022-08-30T21:53:08.443Z,53.70
2022-08-30T21:55:35.375Z,53.90
2022-08-30T21:58:02.067Z,53.00
2022-08-30T22:00:31.704Z,53.10
2022-08-30T22:02:58.564Z,53.10
2022-08-30T22:05:25.426Z,54.20
2022-08-30T22:07:52.170Z,53.20
2022-08-30T22:10:21.105Z,54.00
2022-08-30T22:12:48.091Z,53.20
2022-08-30T22:15:15.103Z,53.10
2022-08-30T22:17:43.678Z,53.20
2022-08-30T22:20:11.842Z,53.20
2022-08-30T22:22:45.254Z,54.00
2022-08-30T22:25:12.514Z,54.20
2022-08-30T22:27:39.293Z,53.30
2022-08-30T22:30:06.733Z,53.30
2022-08-30T22:32:33.594Z,54.20
2022-08-30T22:35:00.438Z,53.40
2022-08-30T22:37:27.260Z,54.40
2022-08-30T22:39:54.023Z,54.50
2022-08-30T22:42:20.780Z,53.50
2022-08-30T22:44:48.323Z,53.50
2022-08-30T22:47:15.187Z,53.50
2022-08-30T22:49:41.903Z,53.50
2022-08-30T22:52:08.995Z,53.40
2022-08-30T22:54:37.817Z,54.50
2022-08-30T22:57:04.819Z,53.40
2022-08-30T22:59:32.497Z,53.40
2022-08-30T23:01:59.819Z,53.40
2022-08-30T23:04:26.772Z,54.30
2022-08-30T23:06:53.566Z,53.40
2022-08-30T23:09:20.410Z,53.50
2022-08-30T23:11:47.345Z,51.70
2022-08-30T23:14:14.443Z,53.50
2022-08-30T23:16:41.377Z,54.40
2022-08-30T23:19:08.280Z,53.20
2022-08-30T23:21:35.135Z,53.50
2022-08-30T23:24:20.446Z,53.70
2022-08-30T23:27:06.073Z,53.50
2022-08-30T23:29:53.205Z,54.30
2022-08-30T23:32:39.399Z,53.50
2022-08-30T23:35:29.646Z,53.50
2022-08-30T23:38:21.484Z,53.50
2022-08-30T23:41:07.425Z,54.20
2022-08-30T23:43:52.894Z,53.50
2022-08-30T23:46:39.609Z,54.20
2022-08-30T23:49:24.928Z,53.60
2022-08-30T23:52:10.170Z,54.20
2022-08-30T23:54:57.352Z,54.20
2022-08-30T23:57:44.431Z,54.60
